This is the latest recevied weather packets stored in our database for station/object SP5MRF. If no packets are shown the sender has not sent any weather packets the latest 1 day(s).
| Time | Temp. | Humidity | Pressure | Rain* | Wind** | Luminosity | Snow |
|---|---|---|---|---|---|---|---|
| 1777965957 | 20° C | 55% | 1006 hPa | 0 mm | 0 m/s | - | - |
| 1777965477 | 19.44° C | 56% | 1006 hPa | 0 mm | 0 m/s | - | - |
| 1777964997 | 18.89° C | 57% | 1006 hPa | 0 mm | 0 m/s | - | - |
| 1777964517 | 18.89° C | 59% | 1006.1 hPa | 0 mm | 0 m/s | - | - |
| 1777964037 | 18.33° C | 59% | 1006 hPa | 0 mm | 0 m/s | - | - |
| 1777963557 | 18.33° C | 60% | 1006.2 hPa | 0 mm | 0 m/s | - | - |
| 1777963077 | 17.78° C | 60% | 1006.2 hPa | 0 mm | 0 m/s | - | - |
| 1777962597 | 17.78° C | 61% | 1006.3 hPa | 0 mm | 0 m/s | - | - |
| 1777962117 | 17.78° C | 62% | 1006.4 hPa | 0 mm | 0 m/s | - | - |
| 1777961637 | 17.22° C | 63% | 1006.4 hPa | 0 mm | 0 m/s | - | - |
| 1777960678 | 16.67° C | 64% | 1006.2 hPa | 0 mm | 0 m/s | - | - |
| 1777960198 | 16.67° C | 64% | 1006.3 hPa | 0 mm | 0 m/s | - | - |
| 1777959717 | 16.67° C | 65% | 1006.4 hPa | 0 mm | 0 m/s | - | - |
| 1777959239 | 16.11° C | 66% | 1006.4 hPa | 0 mm | 0 m/s | - | - |
| 1777958277 | 15.56° C | 66% | 1006.4 hPa | 0 mm | 0 m/s | - | - |
| 1777957797 | 15.56° C | 66% | 1006.4 hPa | 0 mm | 0 m/s | - | - |
| 1777957317 | 15.56° C | 67% | 1006.6 hPa | 0 mm | 0 m/s | - | - |
| 1777956837 | 15.56° C | 67% | 1006.6 hPa | 0 mm | 0 m/s | - | - |
| 1777956357 | 15° C | 68% | 1006.4 hPa | 0 mm | 0 m/s | - | - |
| 1777955877 | 15° C | 69% | 1006.4 hPa | 0 mm | 0 m/s | - | - |
| 1777955397 | 14.44° C | 69% | 1006.3 hPa | 0 mm | 0 m/s | - | - |
| 1777954917 | 14.44° C | 69% | 1006.4 hPa | 0 mm | 0 m/s | - | - |
| 1777954439 | 13.89° C | 71% | 1006.2 hPa | 0 mm | 0 m/s | - | - |
* Rain latest hour (hover to see other rain measurements)
** Current wind speed in m/s (hover to see current wind gust speed)